Saturday, November 17, 2018, 2:30 AM EST
Back to Local

KDSV, Dansville Municipal Airport

Location: Dansville, NY, United States Lat: 42.567
Local Time: 2:30 AM EST ( 7:30 GMT) Lon: -77.717
Time Zone: US/Eastern Elev: 662 ft

Show me the last for .
Show Decoded

2018-11-17 01:54 METAR KDSV 170654Z AUTO 00000KT 10SM SCT027 BKN040 OVC047 03/M01 A2997 RMK AO2
                 SLP163 T00331011 =
2018-11-17 00:54 METAR KDSV 170554Z AUTO VRB03KT 9SM FEW026 OVC040 03/M01 A2996 RMK AO2 SLP160
                 T00331011 10039 20022 50011 =
2018-11-17 00:52 METAR KDSV 170552Z AUTO VRB04KT 9SM SCT026 OVC038 03/M01 A2996 RMK AO2 =
2018-11-16 23:54 METAR KDSV 170454Z AUTO 00000KT 9SM OVC023 03/M01 A2995 RMK AO2 SLP155 T00331011
                 400441022 =
2018-11-16 23:23 METAR KDSV 170423Z AUTO 00000KT 9SM BKN027 OVC036 03/M01 A2994 RMK AO2 T00281011
                 =
2018-11-16 22:54 METAR KDSV 170354Z AUTO VRB03KT 8SM SCT015 BKN030 OVC050 03/M01 A2993 RMK AO2
                 SLP150 T00331006 =
2018-11-16 21:54 METAR KDSV 170254Z AUTO 27003KT 8SM OVC015 03/00 A2992 RMK AO2 SLP145 T00280000
                 53024 =
2018-11-16 20:54 METAR KDSV 170154Z AUTO VRB04KT 10SM OVC017 03/M01 A2989 RMK AO2 SLP136
                 T00281006 =
2018-11-16 19:54 METAR KDSV 170054Z AUTO 00000KT 10SM OVC020 03/M01 A2986 RMK AO2 SLP128
                 T00331011 =
2018-11-16 18:54 METAR KDSV 162354Z AUTO VRB03KT 10SM OVC023 03/M02 A2985 RMK AO2 SLP122
                 T00281022 10039 20028 53021 =
2018-11-16 17:54 METAR KDSV 162254Z AUTO VRB06KT 10SM OVC026 03/M02 A2982 RMK AO2 SLP113
                 T00281022 =
2018-11-16 16:54 METAR KDSV 162154Z AUTO 10SM OVC025 03/M02 A2980 RMK AO2 SLP107 T00281022 =
2018-11-16 15:54 METAR KDSV 162054Z AUTO VRB06KT 10SM OVC025 03/M02 A2978 RMK AO2 SLP100
                 T00331022 53017 =
2018-11-16 14:54 METAR KDSV 161954Z AUTO VRB03KT 10SM OVC028 04/M02 A2976 RMK AO2 SLP093
                 T00391022 =
2018-11-16 14:24 METAR KDSV 161924Z AUTO VRB03KT 10SM OVC028 04/M02 A2975 RMK AO2 T00391022 =
2018-11-16 13:54 METAR KDSV 161854Z AUTO 00000KT 10SM OVC033 04/M02 A2975 RMK AO2 SLP088
                 T00391022 =
2018-11-16 12:54 METAR KDSV 161754Z AUTO VRB03KT 10SM BKN030 OVC060 04/M02 A2973 RMK AO2 SLP082
                 6//// T00391017 10044 21017 53003 =
2018-11-16 12:43 METAR KDSV 161743Z AUTO VRB05KT 10SM BKN030 OVC037 04/M01 A2972 RMK AO2
                 T00391011 =
2018-11-16 11:54 METAR KDSV 161654Z AUTO VRB03KT 10SM BKN027 OVC033 04/M01 A2972 RMK AO2 SLP080
                 T00391006 =
2018-11-16 10:54 METAR KDSV 161554Z AUTO 00000KT 10SM OVC026 02/M01 A2972 RMK AO2 SLP079
                 T00221006 =
2018-11-16 09:54 METAR KDSV 161454Z AUTO 16005KT 10SM OVC020 01/M01 A2972 RMK AO2 SLP080 6////
                 T00061011 58006 =
2018-11-16 08:54 METAR KDSV 161354Z AUTO 13006KT 10SM OVC017 00/M02 A2973 RMK AO2 SLP085
                 T00001022 =
2018-11-16 07:54 METAR KDSV 161254Z AUTO 12005KT 10SM BKN017 OVC030 M01/M03 A2973 RMK AO2 SNE23
                 SLP083 T10111028 =
2018-11-16 07:21 METAR KDSV 161221Z AUTO 13004KT 6SM -SN BR SCT018 OVC028 M02/M03 A2973 RMK AO2
                 T10171033 PNO $ =
2018-11-16 07:13 METAR KDSV 161213Z AUTO 13005KT 2 1/2SM -SN BR BKN018 OVC028 M02/M03 A2973 RMK
                 AO2 T10171033 PNO $ =
2018-11-16 06:54 METAR KDSV 161154Z AUTO 13005KT 3SM -SN BR OVC018 M02/M03 A2974 RMK AO2 SLP086
                 6//// 7//// T10171033 11017 21022 56014 PNO $ =
2018-11-16 06:02 METAR KDSV 161102Z AUTO 00000KT 3SM -SN BR BKN019 OVC024 M02/M03 A2974 RMK AO2
                 T10171033 PNO $ =
2018-11-16 05:54 METAR KDSV 161054Z AUTO 00000KT 2 1/2SM -SN BR OVC019 M02/M03 A2974 RMK AO2
                 SLP088 T10171033 PNO $ =
2018-11-16 05:34 METAR KDSV 161034Z AUTO 00000KT 2SM -SN BR OVC021 M02/M03 A2975 RMK AO2
                 T10171033 PNO $ =
2018-11-16 05:13 METAR KDSV 161013Z AUTO 19005KT 3SM -SN BR OVC023 M02/M03 A2974 RMK AO2
                 T10171033 PNO $ =
2018-11-16 04:54 METAR KDSV 160954Z AUTO 16005KT 2SM -SN BR OVC027 M02/M03 A2974 RMK AO2 SLP088
                 T10171033 PNO $ =
2018-11-16 04:29 METAR KDSV 160929Z AUTO 20005KT 3SM -SN BR OVC025 M02/M03 A2975 RMK AO2
                 T10221033 PNO $ =
2018-11-16 04:18 METAR KDSV 160918Z AUTO 18007KT 2SM -SN BR OVC019 M02/M03 A2975 RMK AO2
                 T10221033 PNO $ =
2018-11-16 04:09 METAR KDSV 160909Z AUTO 14007KT 1SM -SN BR VV012 M02/M03 A2975 RMK AO2 PRESFR
                 T10221033 PNO $ =
2018-11-16 03:57 METAR KDSV 160857Z AUTO 00000KT 3/4SM -SN BR VV009 M02/M03 A2977 RMK AO2
                 T10221033 PNO $ =
2018-11-16 03:54 METAR KDSV 160854Z AUTO 00000KT 1SM -SN BR VV010 M02/M03 A2978 RMK AO2 SLP100
                 6//// T10221033 58019 PNO $ =
2018-11-16 03:39 METAR KDSV 160839Z AUTO 00000KT 3/4SM -SN BR VV008 M02/M03 A2979 RMK AO2
                 T10221028 PNO $ =
2018-11-16 03:11 METAR KDSV 160811Z AUTO 01004KT 1/2SM SN FZFG VV005 M02/M03 A2982 RMK AO2
                 T10221033 PNO $ =
2018-11-16 02:54 METAR KDSV 160754Z AUTO 00000KT 1/4SM +SN FZFG VV004 M02/M03 A2982 RMK AO2
                 SLP114 T10221028 PNO $ =
2018-11-16 02:46 METAR KDSV 160746Z AUTO 00000KT 1/4SM +SN FZFG VV004 M02/M03 A2982 RMK AO2
                 T10221028 PNO $ =

Support USWX by starting your Amazon purchase here.